sensor_id;sensor_type;location;lat;lon;timestamp;temperature;humidity
10030;DHT22;5055;52.054;8.524;2023-03-26T00:02:03;8.10;97.00
10030;DHT22;5055;52.054;8.524;2023-03-26T00:04:32;8.00;97.00
10030;DHT22;5055;52.054;8.524;2023-03-26T00:07:00;8.00;97.00
10030;DHT22;5055;52.054;8.524;2023-03-26T00:09:30;7.90;97.00
10030;DHT22;5055;52.054;8.524;2023-03-26T00:11:59;7.90;97.00
10030;DHT22;5055;52.054;8.524;2023-03-26T00:14:27;7.90;97.00
10030;DHT22;5055;52.054;8.524;2023-03-26T00:16:56;7.80;97.00
10030;DHT22;5055;52.054;8.524;2023-03-26T00:19:24;7.80;97.00
10030;DHT22;5055;52.054;8.524;2023-03-26T00:21:54;7.80;97.00
10030;DHT22;5055;52.054;8.524;2023-03-26T00:24:23;7.80;97.00
10030;DHT22;5055;52.054;8.524;2023-03-26T00:26:57;7.70;97.00
10030;DHT22;5055;52.054;8.524;2023-03-26T00:29:25;7.70;97.00
10030;DHT22;5055;52.054;8.524;2023-03-26T00:31:54;7.70;97.00
10030;DHT22;5055;52.054;8.524;2023-03-26T00:34:23;7.70;97.00
10030;DHT22;5055;52.054;8.524;2023-03-26T00:36:52;7.80;97.00
10030;DHT22;5055;52.054;8.524;2023-03-26T00:39:21;7.80;97.00
10030;DHT22;5055;52.054;8.524;2023-03-26T00:41:50;7.80;97.00
10030;DHT22;5055;52.054;8.524;2023-03-26T00:44:22;7.80;97.00
10030;DHT22;5055;52.054;8.524;2023-03-26T00:46:50;7.80;97.00
10030;DHT22;5055;52.054;8.524;2023-03-26T00:49:19;7.80;97.00
10030;DHT22;5055;52.054;8.524;2023-03-26T00:51:47;7.80;97.00
10030;DHT22;5055;52.054;8.524;2023-03-26T00:54:16;7.80;97.00
10030;DHT22;5055;52.054;8.524;2023-03-26T00:56:44;7.80;97.00
10030;DHT22;5055;52.054;8.524;2023-03-26T00:59:13;7.80;97.00
10030;DHT22;5055;52.054;8.524;2023-03-26T01:01:43;7.80;97.00
10030;DHT22;5055;52.054;8.524;2023-03-26T01:04:23;7.80;97.00
10030;DHT22;5055;52.054;8.524;2023-03-26T01:06:54;7.80;97.00
10030;DHT22;5055;52.054;8.524;2023-03-26T01:09:33;7.90;97.00
10030;DHT22;5055;52.054;8.524;2023-03-26T01:12:06;7.90;97.00
10030;DHT22;5055;52.054;8.524;2023-03-26T01:14:36;7.90;97.00
10030;DHT22;5055;52.054;8.524;2023-03-26T01:17:06;8.00;97.00
10030;DHT22;5055;52.054;8.524;2023-03-26T01:19:38;8.00;97.00
10030;DHT22;5055;52.054;8.524;2023-03-26T01:22:10;8.00;97.00
10030;DHT22;5055;52.054;8.524;2023-03-26T01:24:42;8.00;97.00
10030;DHT22;5055;52.054;8.524;2023-03-26T01:27:21;8.00;97.00
10030;DHT22;5055;52.054;8.524;2023-03-26T01:29:53;8.00;97.00
10030;DHT22;5055;52.054;8.524;2023-03-26T01:32:41;8.00;97.00
10030;DHT22;5055;52.054;8.524;2023-03-26T01:35:23;8.00;97.00
10030;DHT22;5055;52.054;8.524;2023-03-26T01:38:03;8.00;97.00
10030;DHT22;5055;52.054;8.524;2023-03-26T01:40:42;8.00;97.00
10030;DHT22;5055;52.054;8.524;2023-03-26T01:43:20;8.00;97.00
10030;DHT22;5055;52.054;8.524;2023-03-26T01:45:51;7.90;97.00
10030;DHT22;5055;52.054;8.524;2023-03-26T01:48:28;7.90;97.00
10030;DHT22;5055;52.054;8.524;2023-03-26T01:50:57;7.90;97.00
10030;DHT22;5055;52.054;8.524;2023-03-26T01:53:26;7.90;97.00
10030;DHT22;5055;52.054;8.524;2023-03-26T01:56:05;7.90;97.00
10030;DHT22;5055;52.054;8.524;2023-03-26T01:58:49;7.90;97.00
10030;DHT22;5055;52.054;8.524;2023-03-26T02:01:25;7.90;97.00
10030;DHT22;5055;52.054;8.524;2023-03-26T02:04:00;7.90;97.00
10030;DHT22;5055;52.054;8.524;2023-03-26T02:06:37;7.90;97.00
10030;DHT22;5055;52.054;8.524;2023-03-26T02:09:12;7.90;97.00
10030;DHT22;5055;52.054;8.524;2023-03-26T02:11:44;8.00;97.00
10030;DHT22;5055;52.054;8.524;2023-03-26T02:14:14;8.00;97.00
10030;DHT22;5055;52.054;8.524;2023-03-26T02:16:42;8.00;97.00
10030;DHT22;5055;52.054;8.524;2023-03-26T02:19:13;8.00;97.00
10030;DHT22;5055;52.054;8.524;2023-03-26T02:21:48;8.00;97.00
10030;DHT22;5055;52.054;8.524;2023-03-26T02:24:18;8.00;97.00
10030;DHT22;5055;52.054;8.524;2023-03-26T02:26:48;8.00;97.00
10030;DHT22;5055;52.054;8.524;2023-03-26T02:29:16;8.00;97.00
10030;DHT22;5055;52.054;8.524;2023-03-26T02:31:47;8.00;97.00
10030;DHT22;5055;52.054;8.524;2023-03-26T02:34:16;8.00;97.00
10030;DHT22;5055;52.054;8.524;2023-03-26T02:36:44;8.00;97.00
10030;DHT22;5055;52.054;8.524;2023-03-26T02:39:13;8.00;97.00
10030;DHT22;5055;52.054;8.524;2023-03-26T02:41:42;8.00;97.00
10030;DHT22;5055;52.054;8.524;2023-03-26T02:44:11;8.00;97.00
10030;DHT22;5055;52.054;8.524;2023-03-26T02:46:40;8.00;97.00
10030;DHT22;5055;52.054;8.524;2023-03-26T02:49:08;8.00;97.00
10030;DHT22;5055;52.054;8.524;2023-03-26T02:51:37;8.00;97.00
10030;DHT22;5055;52.054;8.524;2023-03-26T02:54:05;8.00;97.00
10030;DHT22;5055;52.054;8.524;2023-03-26T02:56:34;7.90;97.00
10030;DHT22;5055;52.054;8.524;2023-03-26T02:59:03;7.90;97.00
10030;DHT22;5055;52.054;8.524;2023-03-26T03:01:33;7.90;97.00
10030;DHT22;5055;52.054;8.524;2023-03-26T03:04:03;7.90;97.00
10030;DHT22;5055;52.054;8.524;2023-03-26T03:06:31;7.90;97.00
10030;DHT22;5055;52.054;8.524;2023-03-26T03:09:00;7.90;97.00
10030;DHT22;5055;52.054;8.524;2023-03-26T03:11:31;7.90;97.00
10030;DHT22;5055;52.054;8.524;2023-03-26T03:13:59;7.90;97.00
10030;DHT22;5055;52.054;8.524;2023-03-26T03:16:28;7.90;97.00
10030;DHT22;5055;52.054;8.524;2023-03-26T03:18:58;7.90;97.00
10030;DHT22;5055;52.054;8.524;2023-03-26T03:21:28;7.90;97.00
10030;DHT22;5055;52.054;8.524;2023-03-26T03:23:57;7.90;97.00
10030;DHT22;5055;52.054;8.524;2023-03-26T03:26:26;7.90;97.00
10030;DHT22;5055;52.054;8.524;2023-03-26T03:28:56;8.00;97.00
10030;DHT22;5055;52.054;8.524;2023-03-26T03:31:25;7.90;97.00
10030;DHT22;5055;52.054;8.524;2023-03-26T03:33:54;7.90;97.00
10030;DHT22;5055;52.054;8.524;2023-03-26T03:36:24;7.90;97.00
10030;DHT22;5055;52.054;8.524;2023-03-26T03:38:56;7.90;97.00
10030;DHT22;5055;52.054;8.524;2023-03-26T03:41:28;7.90;97.00
10030;DHT22;5055;52.054;8.524;2023-03-26T03:43:57;7.90;97.00
10030;DHT22;5055;52.054;8.524;2023-03-26T03:46:27;7.90;97.00
10030;DHT22;5055;52.054;8.524;2023-03-26T03:48:56;7.90;97.00
10030;DHT22;5055;52.054;8.524;2023-03-26T03:51:26;7.90;97.00
10030;DHT22;5055;52.054;8.524;2023-03-26T03:53:54;7.90;97.00
10030;DHT22;5055;52.054;8.524;2023-03-26T03:56:23;8.00;97.00
10030;DHT22;5055;52.054;8.524;2023-03-26T03:58:52;7.90;97.00
10030;DHT22;5055;52.054;8.524;2023-03-26T04:01:20;7.90;97.00
10030;DHT22;5055;52.054;8.524;2023-03-26T04:03:49;8.00;97.00
10030;DHT22;5055;52.054;8.524;2023-03-26T04:06:18;8.00;97.00
10030;DHT22;5055;52.054;8.524;2023-03-26T04:08:48;8.00;97.00
10030;DHT22;5055;52.054;8.524;2023-03-26T04:11:16;8.00;97.00
10030;DHT22;5055;52.054;8.524;2023-03-26T04:13:45;8.00;97.00
10030;DHT22;5055;52.054;8.524;2023-03-26T04:16:13;8.00;97.00
10030;DHT22;5055;52.054;8.524;2023-03-26T04:18:46;8.00;97.00
10030;DHT22;5055;52.054;8.524;2023-03-26T04:21:24;8.00;97.00
10030;DHT22;5055;52.054;8.524;2023-03-26T04:23:57;8.00;97.00
10030;DHT22;5055;52.054;8.524;2023-03-26T04:26:27;8.00;97.00
10030;DHT22;5055;52.054;8.524;2023-03-26T04:28:58;8.00;97.00
10030;DHT22;5055;52.054;8.524;2023-03-26T04:31:29;8.00;97.00
10030;DHT22;5055;52.054;8.524;2023-03-26T04:34:03;8.00;97.00
10030;DHT22;5055;52.054;8.524;2023-03-26T04:36:33;8.00;97.00
10030;DHT22;5055;52.054;8.524;2023-03-26T04:39:03;8.00;97.00
10030;DHT22;5055;52.054;8.524;2023-03-26T04:41:32;8.00;97.00
10030;DHT22;5055;52.054;8.524;2023-03-26T04:44:00;8.00;97.00
10030;DHT22;5055;52.054;8.524;2023-03-26T04:46:29;8.00;97.00
10030;DHT22;5055;52.054;8.524;2023-03-26T04:49:00;8.00;97.00
10030;DHT22;5055;52.054;8.524;2023-03-26T04:51:35;8.00;97.00
10030;DHT22;5055;52.054;8.524;2023-03-26T04:54:09;8.00;97.00
10030;DHT22;5055;52.054;8.524;2023-03-26T04:56:42;8.00;97.00
10030;DHT22;5055;52.054;8.524;2023-03-26T04:59:15;8.00;97.00
10030;DHT22;5055;52.054;8.524;2023-03-26T05:01:45;8.00;97.00
10030;DHT22;5055;52.054;8.524;2023-03-26T05:04:13;8.00;97.00
10030;DHT22;5055;52.054;8.524;2023-03-26T05:06:41;8.00;97.00
10030;DHT22;5055;52.054;8.524;2023-03-26T05:09:11;8.00;97.00
10030;DHT22;5055;52.054;8.524;2023-03-26T05:11:40;8.00;97.00
10030;DHT22;5055;52.054;8.524;2023-03-26T05:14:09;7.90;97.00
10030;DHT22;5055;52.054;8.524;2023-03-26T05:16:38;7.90;97.00
10030;DHT22;5055;52.054;8.524;2023-03-26T05:19:07;7.90;97.00
10030;DHT22;5055;52.054;8.524;2023-03-26T05:21:38;7.90;97.00
10030;DHT22;5055;52.054;8.524;2023-03-26T05:24:07;7.90;97.00
10030;DHT22;5055;52.054;8.524;2023-03-26T05:26:37;7.90;97.00
10030;DHT22;5055;52.054;8.524;2023-03-26T05:29:06;7.90;97.00
10030;DHT22;5055;52.054;8.524;2023-03-26T05:31:34;7.90;97.00
10030;DHT22;5055;52.054;8.524;2023-03-26T05:34:04;7.90;97.00
10030;DHT22;5055;52.054;8.524;2023-03-26T05:36:32;7.90;97.00
10030;DHT22;5055;52.054;8.524;2023-03-26T05:39:01;7.90;97.00
10030;DHT22;5055;52.054;8.524;2023-03-26T05:41:30;7.90;97.00
10030;DHT22;5055;52.054;8.524;2023-03-26T05:44:01;7.90;97.00
10030;DHT22;5055;52.054;8.524;2023-03-26T05:46:30;7.90;97.00
10030;DHT22;5055;52.054;8.524;2023-03-26T05:48:59;7.90;97.00
10030;DHT22;5055;52.054;8.524;2023-03-26T05:51:27;7.90;97.00
10030;DHT22;5055;52.054;8.524;2023-03-26T05:53:56;7.90;97.00
10030;DHT22;5055;52.054;8.524;2023-03-26T05:56:25;8.00;97.00
10030;DHT22;5055;52.054;8.524;2023-03-26T05:58:55;8.00;97.00
10030;DHT22;5055;52.054;8.524;2023-03-26T06:01:25;8.00;97.00
10030;DHT22;5055;52.054;8.524;2023-03-26T06:03:55;8.00;97.00
10030;DHT22;5055;52.054;8.524;2023-03-26T06:06:23;8.00;97.00
10030;DHT22;5055;52.054;8.524;2023-03-26T06:08:52;8.00;97.00
10030;DHT22;5055;52.054;8.524;2023-03-26T06:11:28;8.00;97.00
10030;DHT22;5055;52.054;8.524;2023-03-26T06:13:57;8.10;97.00
10030;DHT22;5055;52.054;8.524;2023-03-26T06:16:28;8.10;97.00
10030;DHT22;5055;52.054;8.524;2023-03-26T06:18:57;8.10;97.00
10030;DHT22;5055;52.054;8.524;2023-03-26T06:21:26;8.10;97.00
10030;DHT22;5055;52.054;8.524;2023-03-26T06:23:55;8.20;97.00
10030;DHT22;5055;52.054;8.524;2023-03-26T06:26:23;8.20;97.00
10030;DHT22;5055;52.054;8.524;2023-03-26T06:28:52;8.20;97.00
10030;DHT22;5055;52.054;8.524;2023-03-26T06:31:21;8.30;97.00
10030;DHT22;5055;52.054;8.524;2023-03-26T06:33:52;8.30;97.00
10030;DHT22;5055;52.054;8.524;2023-03-26T06:36:20;8.30;97.00
10030;DHT22;5055;52.054;8.524;2023-03-26T06:38:48;8.30;97.00
10030;DHT22;5055;52.054;8.524;2023-03-26T06:41:17;8.40;97.00
10030;DHT22;5055;52.054;8.524;2023-03-26T06:43:46;8.40;97.00
10030;DHT22;5055;52.054;8.524;2023-03-26T06:46:15;8.40;97.00
10030;DHT22;5055;52.054;8.524;2023-03-26T06:48:45;8.50;97.00
10030;DHT22;5055;52.054;8.524;2023-03-26T06:51:15;8.50;97.00
10030;DHT22;5055;52.054;8.524;2023-03-26T06:53:43;8.60;97.00
10030;DHT22;5055;52.054;8.524;2023-03-26T06:56:12;8.70;97.00
10030;DHT22;5055;52.054;8.524;2023-03-26T06:58:40;8.80;97.00
10030;DHT22;5055;52.054;8.524;2023-03-26T07:01:09;8.90;97.00
10030;DHT22;5055;52.054;8.524;2023-03-26T07:03:38;8.90;97.00
10030;DHT22;5055;52.054;8.524;2023-03-26T07:06:08;8.90;97.00
10030;DHT22;5055;52.054;8.524;2023-03-26T07:08:38;8.90;97.00
10030;DHT22;5055;52.054;8.524;2023-03-26T07:11:07;8.90;97.00
10030;DHT22;5055;52.054;8.524;2023-03-26T07:13:36;8.90;97.00
10030;DHT22;5055;52.054;8.524;2023-03-26T07:16:06;9.00;97.00
10030;DHT22;5055;52.054;8.524;2023-03-26T07:18:34;9.00;97.00
10030;DHT22;5055;52.054;8.524;2023-03-26T07:21:04;9.00;97.00
10030;DHT22;5055;52.054;8.524;2023-03-26T07:23:33;9.00;97.00
10030;DHT22;5055;52.054;8.524;2023-03-26T07:26:12;9.10;97.00
10030;DHT22;5055;52.054;8.524;2023-03-26T07:28:49;9.00;97.00
10030;DHT22;5055;52.054;8.524;2023-03-26T07:31:36;9.00;97.00
10030;DHT22;5055;52.054;8.524;2023-03-26T07:34:12;9.00;97.00
10030;DHT22;5055;52.054;8.524;2023-03-26T07:36:48;9.10;97.00
10030;DHT22;5055;52.054;8.524;2023-03-26T07:39:33;9.20;97.00
10030;DHT22;5055;52.054;8.524;2023-03-26T07:42:15;9.30;97.00
10030;DHT22;5055;52.054;8.524;2023-03-26T07:44:59;9.40;97.00
10030;DHT22;5055;52.054;8.524;2023-03-26T07:47:33;9.40;97.00
10030;DHT22;5055;52.054;8.524;2023-03-26T07:50:03;9.50;97.00
10030;DHT22;5055;52.054;8.524;2023-03-26T07:52:33;9.50;97.00
10030;DHT22;5055;52.054;8.524;2023-03-26T07:55:03;9.60;97.00
10030;DHT22;5055;52.054;8.524;2023-03-26T07:57:39;9.70;97.00
10030;DHT22;5055;52.054;8.524;2023-03-26T08:00:13;9.70;97.00
10030;DHT22;5055;52.054;8.524;2023-03-26T08:06:02;9.80;97.00
10030;DHT22;5055;52.054;8.524;2023-03-26T08:08:37;9.80;97.00
10030;DHT22;5055;52.054;8.524;2023-03-26T08:11:24;9.80;97.00
10030;DHT22;5055;52.054;8.524;2023-03-26T08:14:08;9.80;97.00
10030;DHT22;5055;52.054;8.524;2023-03-26T08:16:44;10.00;97.00
10030;DHT22;5055;52.054;8.524;2023-03-26T08:22:16;10.00;97.00
10030;DHT22;5055;52.054;8.524;2023-03-26T08:25:02;10.10;97.00
10030;DHT22;5055;52.054;8.524;2023-03-26T08:27:37;10.10;97.00
10030;DHT22;5055;52.054;8.524;2023-03-26T08:30:30;10.10;97.00
10030;DHT22;5055;52.054;8.524;2023-03-26T08:33:13;10.10;97.00
10030;DHT22;5055;52.054;8.524;2023-03-26T08:35:44;10.10;97.00
10030;DHT22;5055;52.054;8.524;2023-03-26T08:38:14;10.10;97.00
10030;DHT22;5055;52.054;8.524;2023-03-26T08:41:20;10.10;97.00
10030;DHT22;5055;52.054;8.524;2023-03-26T08:44:29;10.20;97.00
10030;DHT22;5055;52.054;8.524;2023-03-26T08:47:32;10.20;97.00
10030;DHT22;5055;52.054;8.524;2023-03-26T08:50:25;10.40;97.00
10030;DHT22;5055;52.054;8.524;2023-03-26T08:56:10;10.70;97.00
10030;DHT22;5055;52.054;8.524;2023-03-26T08:59:10;10.80;97.00
10030;DHT22;5055;52.054;8.524;2023-03-26T09:02:06;10.90;97.00
10030;DHT22;5055;52.054;8.524;2023-03-26T09:05:19;11.00;97.00
10030;DHT22;5055;52.054;8.524;2023-03-26T09:08:17;11.20;97.00
10030;DHT22;5055;52.054;8.524;2023-03-26T09:11:13;11.20;97.00
10030;DHT22;5055;52.054;8.524;2023-03-26T09:20:25;11.50;97.00
10030;DHT22;5055;52.054;8.524;2023-03-26T09:23:29;11.60;97.00
10030;DHT22;5055;52.054;8.524;2023-03-26T09:26:09;11.60;97.00
10030;DHT22;5055;52.054;8.524;2023-03-26T09:35:32;11.70;97.00
10030;DHT22;5055;52.054;8.524;2023-03-26T09:38:10;11.80;97.00
10030;DHT22;5055;52.054;8.524;2023-03-26T09:40:52;12.00;97.00
10030;DHT22;5055;52.054;8.524;2023-03-26T09:43:46;12.00;97.00
10030;DHT22;5055;52.054;8.524;2023-03-26T09:46:25;11.90;97.00
10030;DHT22;5055;52.054;8.524;2023-03-26T09:49:16;11.70;97.00
10030;DHT22;5055;52.054;8.524;2023-03-26T09:52:05;11.60;97.00
10030;DHT22;5055;52.054;8.524;2023-03-26T09:55:01;11.60;97.00
10030;DHT22;5055;52.054;8.524;2023-03-26T09:58:06;11.70;97.00
10030;DHT22;5055;52.054;8.524;2023-03-26T10:00:43;11.80;97.00
10030;DHT22;5055;52.054;8.524;2023-03-26T10:03:28;11.90;97.00
10030;DHT22;5055;52.054;8.524;2023-03-26T10:06:07;11.90;97.00
10030;DHT22;5055;52.054;8.524;2023-03-26T10:08:55;11.90;97.00
10030;DHT22;5055;52.054;8.524;2023-03-26T10:11:37;11.90;97.00
10030;DHT22;5055;52.054;8.524;2023-03-26T10:14:19;11.80;97.00
10030;DHT22;5055;52.054;8.524;2023-03-26T10:16:58;11.70;97.00
10030;DHT22;5055;52.054;8.524;2023-03-26T10:19:48;11.70;97.00
10030;DHT22;5055;52.054;8.524;2023-03-26T10:22:30;11.70;97.00
10030;DHT22;5055;52.054;8.524;2023-03-26T10:25:30;11.70;97.00
10030;DHT22;5055;52.054;8.524;2023-03-26T10:28:13;11.60;97.00
10030;DHT22;5055;52.054;8.524;2023-03-26T10:31:16;11.60;97.00
10030;DHT22;5055;52.054;8.524;2023-03-26T10:33:58;11.60;97.00
10030;DHT22;5055;52.054;8.524;2023-03-26T10:36:34;11.50;97.00
10030;DHT22;5055;52.054;8.524;2023-03-26T10:39:14;11.40;97.00
10030;DHT22;5055;52.054;8.524;2023-03-26T10:42:19;11.20;97.00
10030;DHT22;5055;52.054;8.524;2023-03-26T10:45:07;11.10;97.00
10030;DHT22;5055;52.054;8.524;2023-03-26T10:47:54;10.90;97.00
10030;DHT22;5055;52.054;8.524;2023-03-26T10:53:31;10.50;97.00
10030;DHT22;5055;52.054;8.524;2023-03-26T10:56:08;10.30;97.00
10030;DHT22;5055;52.054;8.524;2023-03-26T10:58:41;10.20;97.00
10030;DHT22;5055;52.054;8.524;2023-03-26T11:01:23;10.10;97.00
10030;DHT22;5055;52.054;8.524;2023-03-26T11:04:02;10.00;97.00
10030;DHT22;5055;52.054;8.524;2023-03-26T11:06:36;10.00;97.00
10030;DHT22;5055;52.054;8.524;2023-03-26T11:09:30;10.00;97.00
10030;DHT22;5055;52.054;8.524;2023-03-26T11:12:06;9.90;97.00
10030;DHT22;5055;52.054;8.524;2023-03-26T11:15:06;9.90;97.00
10030;DHT22;5055;52.054;8.524;2023-03-26T11:17:44;9.90;97.00
10030;DHT22;5055;52.054;8.524;2023-03-26T11:20:18;9.80;97.00
10030;DHT22;5055;52.054;8.524;2023-03-26T11:22:56;9.80;97.00
10030;DHT22;5055;52.054;8.524;2023-03-26T11:25:37;9.70;97.00
10030;DHT22;5055;52.054;8.524;2023-03-26T11:28:25;9.60;97.00
10030;DHT22;5055;52.054;8.524;2023-03-26T11:31:03;9.50;97.00
10030;DHT22;5055;52.054;8.524;2023-03-26T11:33:38;9.40;97.00
10030;DHT22;5055;52.054;8.524;2023-03-26T11:36:14;9.30;97.00
10030;DHT22;5055;52.054;8.524;2023-03-26T11:38:45;9.30;97.00
10030;DHT22;5055;52.054;8.524;2023-03-26T11:41:17;9.30;97.00
10030;DHT22;5055;52.054;8.524;2023-03-26T11:43:52;9.20;97.00
10030;DHT22;5055;52.054;8.524;2023-03-26T11:46:25;9.20;97.00
10030;DHT22;5055;52.054;8.524;2023-03-26T11:48:56;9.20;97.00
10030;DHT22;5055;52.054;8.524;2023-03-26T11:51:29;9.20;97.00
10030;DHT22;5055;52.054;8.524;2023-03-26T11:53:58;9.20;97.00
10030;DHT22;5055;52.054;8.524;2023-03-26T11:56:28;9.20;97.00
10030;DHT22;5055;52.054;8.524;2023-03-26T11:59:02;9.20;97.00
10030;DHT22;5055;52.054;8.524;2023-03-26T12:01:43;9.20;97.00
10030;DHT22;5055;52.054;8.524;2023-03-26T12:04:19;9.10;97.00
10030;DHT22;5055;52.054;8.524;2023-03-26T12:06:54;9.20;97.00
10030;DHT22;5055;52.054;8.524;2023-03-26T12:09:24;9.20;97.00
10030;DHT22;5055;52.054;8.524;2023-03-26T12:11:58;9.20;97.00
10030;DHT22;5055;52.054;8.524;2023-03-26T12:14:31;9.20;97.00
10030;DHT22;5055;52.054;8.524;2023-03-26T12:17:04;9.20;97.00
10030;DHT22;5055;52.054;8.524;2023-03-26T12:19:39;9.10;97.00
10030;DHT22;5055;52.054;8.524;2023-03-26T12:22:26;9.10;97.00
10030;DHT22;5055;52.054;8.524;2023-03-26T12:25:13;9.10;97.00
10030;DHT22;5055;52.054;8.524;2023-03-26T12:27:43;9.10;97.00
10030;DHT22;5055;52.054;8.524;2023-03-26T12:30:20;9.00;97.00
10030;DHT22;5055;52.054;8.524;2023-03-26T12:32:52;9.00;97.00
10030;DHT22;5055;52.054;8.524;2023-03-26T12:35:25;8.80;97.00
10030;DHT22;5055;52.054;8.524;2023-03-26T12:38:18;8.80;97.00
10030;DHT22;5055;52.054;8.524;2023-03-26T12:40:43;8.70;97.00
10030;DHT22;5055;52.054;8.524;2023-03-26T12:43:21;8.80;97.00
10030;DHT22;5055;52.054;8.524;2023-03-26T12:46:22;8.80;97.00
10030;DHT22;5055;52.054;8.524;2023-03-26T12:49:12;8.80;97.00
10030;DHT22;5055;52.054;8.524;2023-03-26T12:51:47;8.70;97.00
10030;DHT22;5055;52.054;8.524;2023-03-26T12:54:33;8.70;97.00
10030;DHT22;5055;52.054;8.524;2023-03-26T12:57:14;8.70;97.00
10030;DHT22;5055;52.054;8.524;2023-03-26T12:59:52;8.70;97.00
10030;DHT22;5055;52.054;8.524;2023-03-26T13:05:51;8.70;97.00
10030;DHT22;5055;52.054;8.524;2023-03-26T13:08:40;8.80;97.00
10030;DHT22;5055;52.054;8.524;2023-03-26T13:11:16;8.80;97.00
10030;DHT22;5055;52.054;8.524;2023-03-26T13:13:57;8.80;97.00
10030;DHT22;5055;52.054;8.524;2023-03-26T13:16:35;8.70;97.00
10030;DHT22;5055;52.054;8.524;2023-03-26T13:19:10;8.70;97.00
10030;DHT22;5055;52.054;8.524;2023-03-26T13:21:54;8.60;97.00
10030;DHT22;5055;52.054;8.524;2023-03-26T13:24:33;8.50;97.00
10030;DHT22;5055;52.054;8.524;2023-03-26T13:27:20;8.50;97.00
10030;DHT22;5055;52.054;8.524;2023-03-26T13:29:55;8.40;97.00
10030;DHT22;5055;52.054;8.524;2023-03-26T13:32:36;8.30;97.00
10030;DHT22;5055;52.054;8.524;2023-03-26T13:35:13;8.40;97.00
10030;DHT22;5055;52.054;8.524;2023-03-26T13:37:49;8.40;97.00
10030;DHT22;5055;52.054;8.524;2023-03-26T13:40:24;8.50;97.00
10030;DHT22;5055;52.054;8.524;2023-03-26T13:45:55;8.50;97.00
10030;DHT22;5055;52.054;8.524;2023-03-26T13:48:28;8.60;97.00
10030;DHT22;5055;52.054;8.524;2023-03-26T13:51:03;8.60;97.00
10030;DHT22;5055;52.054;8.524;2023-03-26T13:53:39;8.60;97.00
10030;DHT22;5055;52.054;8.524;2023-03-26T13:56:12;8.60;97.00
10030;DHT22;5055;52.054;8.524;2023-03-26T13:58:45;8.60;97.00
10030;DHT22;5055;52.054;8.524;2023-03-26T14:01:18;8.50;97.00
10030;DHT22;5055;52.054;8.524;2023-03-26T14:03:54;8.40;97.00
10030;DHT22;5055;52.054;8.524;2023-03-26T14:06:34;8.50;97.00
10030;DHT22;5055;52.054;8.524;2023-03-26T14:09:14;8.50;97.00
10030;DHT22;5055;52.054;8.524;2023-03-26T14:11:51;8.60;97.00
10030;DHT22;5055;52.054;8.524;2023-03-26T14:14:31;8.60;97.00
10030;DHT22;5055;52.054;8.524;2023-03-26T14:17:05;8.50;97.00
10030;DHT22;5055;52.054;8.524;2023-03-26T14:22:44;8.60;97.00
10030;DHT22;5055;52.054;8.524;2023-03-26T14:25:31;8.60;97.00
10030;DHT22;5055;52.054;8.524;2023-03-26T14:28:17;8.70;97.00
10030;DHT22;5055;52.054;8.524;2023-03-26T14:31:13;8.60;97.00
10030;DHT22;5055;52.054;8.524;2023-03-26T14:37:08;8.60;97.00
10030;DHT22;5055;52.054;8.524;2023-03-26T14:46:39;8.50;97.00
10030;DHT22;5055;52.054;8.524;2023-03-26T14:49:30;8.50;97.00
10030;DHT22;5055;52.054;8.524;2023-03-26T14:52:06;8.50;97.00
10030;DHT22;5055;52.054;8.524;2023-03-26T14:54:39;8.50;97.00
10030;DHT22;5055;52.054;8.524;2023-03-26T14:57:37;8.50;97.00
10030;DHT22;5055;52.054;8.524;2023-03-26T15:00:49;8.50;97.00
10030;DHT22;5055;52.054;8.524;2023-03-26T15:04:15;8.50;97.00
10030;DHT22;5055;52.054;8.524;2023-03-26T15:07:22;8.40;97.00
10030;DHT22;5055;52.054;8.524;2023-03-26T15:13:18;8.40;97.00
10030;DHT22;5055;52.054;8.524;2023-03-26T15:16:11;8.30;97.00
10030;DHT22;5055;52.054;8.524;2023-03-26T15:31:16;8.20;97.00
10030;DHT22;5055;52.054;8.524;2023-03-26T15:37:19;8.20;97.00
10030;DHT22;5055;52.054;8.524;2023-03-26T15:43:13;8.20;97.00
10030;DHT22;5055;52.054;8.524;2023-03-26T15:45:44;8.10;97.00
10030;DHT22;5055;52.054;8.524;2023-03-26T15:51:21;8.10;97.00
10030;DHT22;5055;52.054;8.524;2023-03-26T15:53:58;8.00;97.00
10030;DHT22;5055;52.054;8.524;2023-03-26T15:56:43;8.00;97.00
10030;DHT22;5055;52.054;8.524;2023-03-26T15:59:26;7.90;97.00
10030;DHT22;5055;52.054;8.524;2023-03-26T16:02:01;7.90;97.00
10030;DHT22;5055;52.054;8.524;2023-03-26T16:04:43;7.90;97.00
10030;DHT22;5055;52.054;8.524;2023-03-26T16:07:31;7.90;97.00
10030;DHT22;5055;52.054;8.524;2023-03-26T16:10:24;7.90;97.00
10030;DHT22;5055;52.054;8.524;2023-03-26T16:13:19;7.90;97.00
10030;DHT22;5055;52.054;8.524;2023-03-26T16:15:53;7.80;97.00
10030;DHT22;5055;52.054;8.524;2023-03-26T16:18:32;7.80;97.00
10030;DHT22;5055;52.054;8.524;2023-03-26T16:21:35;7.80;97.00
10030;DHT22;5055;52.054;8.524;2023-03-26T16:24:18;7.80;97.00
10030;DHT22;5055;52.054;8.524;2023-03-26T16:27:04;7.70;97.00
10030;DHT22;5055;52.054;8.524;2023-03-26T16:30:07;7.70;97.00
10030;DHT22;5055;52.054;8.524;2023-03-26T16:32:39;7.70;97.00
10030;DHT22;5055;52.054;8.524;2023-03-26T16:38:14;7.70;97.00
10030;DHT22;5055;52.054;8.524;2023-03-26T16:40:56;7.60;97.00
10030;DHT22;5055;52.054;8.524;2023-03-26T16:43:41;7.60;97.00
10030;DHT22;5055;52.054;8.524;2023-03-26T16:46:22;7.50;97.00
10030;DHT22;5055;52.054;8.524;2023-03-26T16:48:57;7.50;97.00
10030;DHT22;5055;52.054;8.524;2023-03-26T16:51:44;7.50;97.00
10030;DHT22;5055;52.054;8.524;2023-03-26T16:54:22;7.40;97.00
10030;DHT22;5055;52.054;8.524;2023-03-26T16:56:56;7.40;97.00
10030;DHT22;5055;52.054;8.524;2023-03-26T16:59:50;7.40;97.00
10030;DHT22;5055;52.054;8.524;2023-03-26T17:02:46;7.40;97.00
10030;DHT22;5055;52.054;8.524;2023-03-26T17:05:19;7.40;97.00
10030;DHT22;5055;52.054;8.524;2023-03-26T17:07:53;7.30;97.00
10030;DHT22;5055;52.054;8.524;2023-03-26T17:10:33;7.30;97.00
10030;DHT22;5055;52.054;8.524;2023-03-26T17:13:05;7.30;97.00
10030;DHT22;5055;52.054;8.524;2023-03-26T17:15:42;7.30;97.00
10030;DHT22;5055;52.054;8.524;2023-03-26T17:18:23;7.20;97.00
10030;DHT22;5055;52.054;8.524;2023-03-26T17:20:59;7.20;97.00
10030;DHT22;5055;52.054;8.524;2023-03-26T17:26:32;7.10;97.00
10030;DHT22;5055;52.054;8.524;2023-03-26T17:29:23;7.00;97.00
10030;DHT22;5055;52.054;8.524;2023-03-26T17:31:59;7.00;97.00
10030;DHT22;5055;52.054;8.524;2023-03-26T17:37:43;6.90;97.00
10030;DHT22;5055;52.054;8.524;2023-03-26T17:40:48;6.80;97.00
10030;DHT22;5055;52.054;8.524;2023-03-26T17:43:42;6.80;97.00
10030;DHT22;5055;52.054;8.524;2023-03-26T17:46:22;6.70;97.00
10030;DHT22;5055;52.054;8.524;2023-03-26T17:48:58;6.70;97.00
10030;DHT22;5055;52.054;8.524;2023-03-26T17:51:38;6.70;97.00
10030;DHT22;5055;52.054;8.524;2023-03-26T17:54:16;6.60;97.00
10030;DHT22;5055;52.054;8.524;2023-03-26T17:56:46;6.60;97.00
10030;DHT22;5055;52.054;8.524;2023-03-26T17:59:19;6.60;97.00
10030;DHT22;5055;52.054;8.524;2023-03-26T18:01:52;6.50;97.00
10030;DHT22;5055;52.054;8.524;2023-03-26T18:04:28;6.50;97.00
10030;DHT22;5055;52.054;8.524;2023-03-26T18:07:12;6.40;97.00
10030;DHT22;5055;52.054;8.524;2023-03-26T18:09:59;6.40;97.00
10030;DHT22;5055;52.054;8.524;2023-03-26T18:15:35;6.30;97.00
10030;DHT22;5055;52.054;8.524;2023-03-26T18:18:13;6.30;97.00
10030;DHT22;5055;52.054;8.524;2023-03-26T18:20:46;6.20;97.00
10030;DHT22;5055;52.054;8.524;2023-03-26T18:23:21;6.20;97.00